Time;durP1;ratioP1;P1;durP2;ratioP2;P2;SDS_P1;SDS_P2;PMS_P1;PMS_P2;Temp;Humidity;BMP_temperature;BMP_pressure;BME280_temperature;BME280_humidity;BME280_pressure;Samples;Min_cycle;Max_cycle;Signal;HPM_P1;HPM_P2
2023/07/12 00:01:01;;;;;;;6.22;1.95;;;20.00;99.90;;;;;;5047768;28;20048;-74
2023/07/12 00:03:29;;;;;;;4.97;1.77;;;20.00;99.90;;;;;;5051202;28;20037;-75
2023/07/12 00:05:55;;;;;;;5.30;1.90;;;20.00;99.90;;;;;;5068307;28;20045;-74
2023/07/12 00:08:24;;;;;;;5.28;1.80;;;20.00;99.90;;;;;;5068433;28;20044;-75
2023/07/12 00:10:51;;;;;;;3.50;1.60;;;19.90;99.90;;;;;;5057833;28;20043;-75
2023/07/12 00:13:17;;;;;;;8.77;2.05;;;19.90;99.90;;;;;;5054142;28;20459;-76
2023/07/12 00:15:45;;;;;;;3.72;1.77;;;19.90;99.90;;;;;;5071698;28;20083;-76
2023/07/12 00:18:16;;;;;;;3.55;1.80;;;19.90;99.90;;;;;;5071684;28;20121;-75
2023/07/12 00:20:43;;;;;;;4.32;1.70;;;19.90;99.90;;;;;;5067552;28;20033;-76
2023/07/12 00:23:14;;;;;;;5.00;1.95;;;19.80;99.90;;;;;;5069973;28;20033;-75
2023/07/12 00:25:40;;;;;;;4.77;1.80;;;19.80;99.90;;;;;;5057486;28;20082;-75
2023/07/12 00:28:17;;;;;;;6.65;1.92;;;19.70;99.90;;;;;;5075121;28;20088;-74
2023/07/12 00:30:42;;;;;;;6.32;2.20;;;19.70;99.90;;;;;;5053267;28;20076;-75
2023/07/12 00:33:08;;;;;;;3.97;1.90;;;19.80;99.90;;;;;;5038420;28;20079;-75
2023/07/12 00:35:34;;;;;;;4.25;2.00;;;19.70;99.90;;;;;;5055188;28;20493;-75
2023/07/12 00:38:01;;;;;;;4.88;2.00;;;19.70;99.90;;;;;;5054913;28;20568;-74
2023/07/12 00:41:01;;;;;;;4.47;2.00;;;19.70;99.90;;;;;;5054759;28;20123;-75
2023/07/12 00:43:51;;;;;;;4.97;2.00;;;19.70;99.90;;;;;;5054624;28;20040;-75
2023/07/12 00:46:25;;;;;;;3.35;1.90;;;19.70;99.90;;;;;;5072348;28;20449;-74
2023/07/12 00:48:50;;;;;;;3.65;1.90;;;19.60;99.90;;;;;;5074882;28;20036;-74
2023/07/12 00:51:38;;;;;;;3.92;2.00;;;19.50;99.90;;;;;;5069809;28;20385;-74
2023/07/12 00:54:14;;;;;;;3.83;1.75;;;19.50;99.90;;;;;;5072728;28;20079;-74
2023/07/12 00:56:40;;;;;;;6.28;2.03;;;19.50;99.90;;;;;;5091668;28;20048;-75
2023/07/12 00:59:32;;;;;;;4.85;2.03;;;19.50;99.90;;;;;;5057867;28;20127;-74
2023/07/12 01:02:00;;;;;;;;;;;19.60;99.90;;;;;;5041088;28;20053;-74
2023/07/12 01:04:34;;;;;;;4.80;1.98;;;19.50;99.90;;;;;;5055610;28;20388;-75
2023/07/12 01:07:00;;;;;;;3.92;2.05;;;19.50;99.90;;;;;;5056578;28;20741;-75
2023/07/12 01:09:27;;;;;;;3.65;2.15;;;19.50;99.90;;;;;;5052499;28;20048;-75
2023/07/12 01:11:54;;;;;;;3.58;2.00;;;19.50;99.90;;;;;;5072548;28;20122;-75
2023/07/12 01:14:20;;;;;;;6.80;2.65;;;19.50;99.90;;;;;;5054770;28;20082;-75
2023/07/12 01:16:53;;;;;;;5.50;2.78;;;19.50;99.90;;;;;;5056944;28;20476;-75
2023/07/12 01:19:18;;;;;;;5.20;2.53;;;19.50;99.90;;;;;;5075448;28;20489;-75
2023/07/12 01:21:47;;;;;;;6.05;2.47;;;19.50;99.90;;;;;;5055045;28;20028;-75
2023/07/12 01:24:14;;;;;;;4.05;2.53;;;19.50;99.90;;;;;;5064143;28;20041;-74
2023/07/12 01:26:43;;;;;;;3.95;2.40;;;19.40;99.90;;;;;;5070766;28;20068;-75
2023/07/12 01:29:10;;;;;;;4.80;2.42;;;19.50;99.90;;;;;;5057636;28;20060;-75
2023/07/12 01:31:36;;;;;;;5.20;2.78;;;19.40;99.90;;;;;;5073090;28;20094;-74
2023/07/12 01:34:02;;;;;;;5.40;2.80;;;19.30;99.90;;;;;;5070327;28;20032;-75
2023/07/12 01:36:30;;;;;;;5.55;2.70;;;19.50;99.90;;;;;;5073599;28;20386;-75
2023/07/12 01:38:58;;;;;;;5.55;2.58;;;19.40;99.90;;;;;;5053817;28;20128;-75
2023/07/12 01:41:24;;;;;;;6.45;3.20;;;19.40;99.90;;;;;;5059419;28;20569;-75
2023/07/12 01:43:49;;;;;;;5.45;2.72;;;19.30;99.90;;;;;;5053563;28;20075;-75
2023/07/12 01:46:15;;;;;;;6.20;3.20;;;19.30;99.90;;;;;;5058722;28;20074;-75
2023/07/12 01:48:41;;;;;;;6.63;2.97;;;19.30;99.90;;;;;;5057324;28;20496;-75
2023/07/12 01:51:07;;;;;;;5.85;2.90;;;19.30;99.90;;;;;;5042988;28;20048;-75
2023/07/12 01:53:34;;;;;;;5.15;2.75;;;19.30;99.90;;;;;;5069854;28;20041;-75
2023/07/12 01:56:02;;;;;;;7.78;2.88;;;19.20;99.90;;;;;;5072705;28;20040;-75
2023/07/12 01:58:28;;;;;;;6.85;3.08;;;19.20;99.90;;;;;;5072617;28;20040;-75
2023/07/12 02:00:55;;;;;;;6.20;3.13;;;19.20;99.90;;;;;;5070442;28;20598;-75
2023/07/12 02:03:21;;;;;;;6.55;2.90;;;19.10;99.90;;;;;;5057841;28;20052;-75
2023/07/12 02:05:46;;;;;;;8.30;2.85;;;19.00;99.90;;;;;;5068926;28;20036;-75
2023/07/12 02:08:12;;;;;;;7.32;3.13;;;19.10;99.90;;;;;;5073644;28;20064;-75
2023/07/12 02:10:38;;;;;;;6.90;3.30;;;19.00;99.90;;;;;;5053599;28;21308;-75
2023/07/12 02:13:04;;;;;;;7.43;3.30;;;18.90;99.90;;;;;;5061456;28;20033;-74
2023/07/12 02:15:30;;;;;;;7.30;3.47;;;18.90;99.90;;;;;;5054354;28;20128;-74
2023/07/12 02:17:56;;;;;;;7.25;2.80;;;18.80;99.90;;;;;;5071798;28;20093;-75
2023/07/12 02:20:23;;;;;;;8.27;3.15;;;18.70;99.90;;;;;;5070793;28;20036;-74
2023/07/12 02:22:50;;;;;;;7.13;2.70;;;18.80;99.90;;;;;;5059315;28;20543;-75
2023/07/12 02:25:17;;;;;;;6.18;2.78;;;18.70;99.90;;;;;;5042929;28;20047;-75
2023/07/12 02:27:44;;;;;;;6.43;2.40;;;18.70;99.90;;;;;;5073075;28;20054;-74
2023/07/12 02:30:13;;;;;;;7.10;2.72;;;18.80;99.90;;;;;;5053224;28;20066;-74
2023/07/12 02:32:39;;;;;;;8.63;2.92;;;18.80;99.90;;;;;;5053860;28;20075;-75
2023/07/12 02:35:05;;;;;;;7.85;2.55;;;18.80;99.90;;;;;;5056283;28;20512;-75
2023/07/12 02:37:31;;;;;;;7.13;2.88;;;18.80;99.90;;;;;;5054274;28;20044;-75
2023/07/12 02:39:56;;;;;;;6.63;2.60;;;18.80;99.90;;;;;;5036198;28;20564;-75
2023/07/12 02:42:22;;;;;;;7.28;2.50;;;18.80;99.90;;;;;;5070765;28;20128;-75
2023/07/12 02:44:48;;;;;;;6.18;2.58;;;18.80;99.90;;;;;;5074070;28;20036;-75
2023/07/12 02:47:14;;;;;;;9.70;3.03;;;18.70;99.90;;;;;;5052637;28;20048;-74
2023/07/12 02:49:40;;;;;;;7.53;2.65;;;18.80;99.90;;;;;;5088731;28;20033;-74
2023/07/12 02:52:07;;;;;;;8.90;2.50;;;18.80;99.90;;;;;;5039259;28;20044;-74
2023/07/12 02:54:34;;;;;;;9.35;3.15;;;18.70;99.90;;;;;;5053295;28;20049;-74
2023/07/12 02:57:01;;;;;;;7.00;2.78;;;18.60;99.90;;;;;;5071319;28;20040;-74
2023/07/12 02:59:26;;;;;;;10.77;3.00;;;18.50;99.90;;;;;;5054744;28;20515;-74
2023/07/12 03:01:52;;;;;;;8.40;3.22;;;18.50;99.90;;;;;;5052603;28;20119;-74
2023/07/12 03:04:19;;;;;;;9.18;2.80;;;18.40;99.90;;;;;;5055651;28;20033;-74
2023/07/12 03:06:45;;;;;;;8.13;2.72;;;18.30;99.90;;;;;;5071251;28;20403;-74
2023/07/12 03:09:10;;;;;;;9.20;2.53;;;18.30;99.90;;;;;;5055548;28;20127;-74
2023/07/12 03:11:36;;;;;;;10.25;2.90;;;18.40;99.90;;;;;;5051553;28;20051;-74
2023/07/12 03:14:02;;;;;;;9.38;2.95;;;18.20;99.90;;;;;;5055800;28;20063;-74
2023/07/12 03:16:28;;;;;;;9.55;2.97;;;18.10;99.90;;;;;;5069920;28;20047;-74
2023/07/12 03:18:55;;;;;;;8.70;2.65;;;18.10;99.90;;;;;;5054463;28;20485;-74
2023/07/12 03:21:21;;;;;;;10.10;3.38;;;18.20;99.90;;;;;;5068216;28;20075;-74
2023/07/12 03:23:48;;;;;;;10.82;3.33;;;18.10;99.90;;;;;;5066634;28;20048;-74
2023/07/12 03:26:14;;;;;;;11.55;3.08;;;18.10;99.90;;;;;;5064036;28;20039;-74
2023/07/12 03:28:39;;;;;;;8.57;2.97;;;18.20;99.90;;;;;;5051936;28;20068;-74
2023/07/12 03:31:08;;;;;;;10.35;3.10;;;18.50;99.90;;;;;;5060476;28;20045;-74
2023/07/12 03:33:34;;;;;;;11.00;3.35;;;18.40;99.90;;;;;;5052119;28;20052;-74
2023/07/12 03:36:00;;;;;;;10.73;3.58;;;18.40;99.90;;;;;;5067666;28;20048;-75
2023/07/12 03:38:28;;;;;;;7.72;3.10;;;18.40;99.90;;;;;;5051768;28;20047;-74
2023/07/12 03:40:55;;;;;;;7.50;2.80;;;18.50;99.90;;;;;;5056448;28;20201;-74
2023/07/12 03:43:22;;;;;;;12.23;3.63;;;18.50;99.90;;;;;;5063584;28;20033;-74
2023/07/12 03:45:48;;;;;;;11.80;3.63;;;18.40;99.90;;;;;;5070820;28;20036;-74
2023/07/12 03:48:13;;;;;;;11.52;3.40;;;18.20;99.90;;;;;;5070830;28;20059;-74
2023/07/12 03:50:43;;;;;;;11.77;3.70;;;18.20;99.90;;;;;;5068482;28;20072;-74
2023/07/12 03:53:09;;;;;;;11.40;3.95;;;18.10;99.90;;;;;;5071992;28;20373;-74
2023/07/12 03:55:42;;;;;;;11.07;3.47;;;18.10;99.90;;;;;;5070280;28;20043;-74
2023/07/12 03:58:09;;;;;;;9.50;3.65;;;18.10;99.90;;;;;;5071747;28;20150;-74
2023/07/12 04:00:38;;;;;;;10.70;3.40;;;18.10;99.90;;;;;;5070538;28;20037;-74
2023/07/12 04:03:04;;;;;;;13.00;3.60;;;18.20;99.90;;;;;;5056079;28;20037;-74
2023/07/12 04:05:29;;;;;;;9.02;3.40;;;18.20;99.90;;;;;;5059406;28;20044;-74
2023/07/12 04:07:56;;;;;;;10.02;3.47;;;18.20;99.90;;;;;;5059069;28;20475;-74
2023/07/12 04:10:22;;;;;;;9.88;3.72;;;18.30;99.90;;;;;;5056433;28;20035;-74
2023/07/12 04:12:48;;;;;;;13.68;3.60;;;18.20;99.90;;;;;;5058688;28;20045;-74
2023/07/12 04:15:13;;;;;;;10.00;3.33;;;18.20;99.90;;;;;;5057859;28;20040;-74
2023/07/12 04:17:39;;;;;;;9.23;3.13;;;18.30;99.90;;;;;;5074508;28;20501;-74
2023/07/12 04:20:05;;;;;;;10.25;3.70;;;18.30;99.90;;;;;;5073296;28;20044;-74
2023/07/12 04:22:31;;;;;;;12.80;4.13;;;18.30;99.90;;;;;;5054076;28;20045;-74
2023/07/12 04:24:57;;;;;;;10.18;3.80;;;18.20;99.90;;;;;;5074947;28;20032;-74
2023/07/12 04:27:22;;;;;;;12.18;3.80;;;18.20;99.90;;;;;;5073019;28;20077;-74
2023/07/12 04:29:48;;;;;;;10.02;3.67;;;18.30;99.90;;;;;;5074717;28;20106;-74
2023/07/12 04:32:14;;;;;;;8.82;3.50;;;18.20;99.90;;;;;;5057544;28;20093;-74
2023/07/12 04:34:40;;;;;;;10.77;3.40;;;18.10;99.90;;;;;;5073310;28;20429;-74
2023/07/12 04:37:06;;;;;;;9.85;3.78;;;18.30;99.90;;;;;;5071791;28;20039;-74
2023/07/12 04:39:32;;;;;;;10.27;3.75;;;18.30;99.90;;;;;;5038174;28;20037;-74
2023/07/12 04:41:58;;;;;;;10.77;3.78;;;18.30;99.90;;;;;;5055647;28;20480;-74
2023/07/12 04:44:25;;;;;;;9.35;3.20;;;18.30;99.90;;;;;;5075068;28;20044;-75
2023/07/12 04:46:51;;;;;;;11.32;3.40;;;18.20;99.90;;;;;;5042178;28;20127;-74
2023/07/12 04:49:16;;;;;;;11.40;3.58;;;18.30;99.90;;;;;;5054901;28;20112;-74
2023/07/12 04:51:42;;;;;;;13.20;4.30;;;18.20;99.90;;;;;;5049224;28;20049;-75
2023/07/12 04:54:07;;;;;;;9.63;3.30;;;18.20;99.90;;;;;;5048344;28;20040;-75
2023/07/12 04:56:33;;;;;;;13.00;3.30;;;18.20;99.90;;;;;;5045900;28;20119;-74
2023/07/12 04:58:58;;;;;;;10.82;3.78;;;18.20;99.90;;;;;;5074786;28;20443;-74
2023/07/12 05:01:24;;;;;;;10.40;4.22;;;18.10;99.90;;;;;;5070781;28;20119;-74
2023/07/12 05:03:50;;;;;;;8.05;3.20;;;18.10;99.90;;;;;;5057951;28;20405;-74
2023/07/12 05:06:15;;;;;;;9.57;3.50;;;18.20;99.90;;;;;;5072854;28;20142;-75
2023/07/12 05:08:41;;;;;;;12.73;4.13;;;18.10;99.90;;;;;;5070468;28;20039;-75
2023/07/12 05:11:07;;;;;;;10.88;3.45;;;18.00;99.90;;;;;;5049844;28;20503;-74
2023/07/12 05:13:33;;;;;;;9.85;3.60;;;18.10;99.90;;;;;;5055799;28;20032;-74
2023/07/12 05:15:59;;;;;;;12.80;3.95;;;18.20;99.90;;;;;;5054440;28;20041;-74
2023/07/12 05:18:24;;;;;;;11.13;4.35;;;18.10;99.90;;;;;;5075828;28;20047;-74
2023/07/12 05:20:52;;;;;;;9.38;4.03;;;17.90;99.90;;;;;;5070158;28;20028;-74
2023/07/12 05:23:18;;;;;;;11.07;4.43;;;17.90;99.90;;;;;;5074363;28;20044;-74
2023/07/12 05:25:51;;;;;;;10.82;4.05;;;17.80;99.90;;;;;;5057010;28;20098;-74
2023/07/12 05:28:17;;;;;;;11.52;4.70;;;17.70;99.90;;;;;;5065549;28;20041;-74
2023/07/12 05:30:43;;;;;;;10.25;4.05;;;17.70;99.90;;;;;;5070267;28;20178;-74
2023/07/12 05:33:08;;;;;;;9.27;3.95;;;17.70;99.90;;;;;;5057457;28;20029;-74
2023/07/12 05:35:34;;;;;;;11.60;3.75;;;17.70;99.90;;;;;;5056689;28;20519;-74
2023/07/12 05:37:59;;;;;;;10.35;3.63;;;17.80;99.90;;;;;;5071144;28;20033;-74
2023/07/12 05:40:25;;;;;;;12.73;3.80;;;17.90;99.90;;;;;;5059557;28;20056;-74
2023/07/12 05:42:51;;;;;;;10.60;3.15;;;17.90;99.90;;;;;;5072871;28;20063;-74
2023/07/12 05:45:17;;;;;;;10.27;3.75;;;18.20;99.90;;;;;;5047716;28;20124;-74
2023/07/12 05:47:45;;;;;;;12.15;3.92;;;18.20;99.90;;;;;;5072909;28;20040;-75
2023/07/12 05:50:13;;;;;;;10.80;4.13;;;18.20;99.90;;;;;;5056189;28;20485;-74
2023/07/12 05:52:38;;;;;;;11.63;3.97;;;18.20;99.90;;;;;;5055316;28;20161;-74
2023/07/12 05:55:07;;;;;;;14.43;4.18;;;18.20;99.90;;;;;;5057350;28;20179;-74
2023/07/12 05:57:32;;;;;;;13.90;4.93;;;18.20;99.90;;;;;;5051460;28;20032;-74
2023/07/12 05:59:59;;;;;;;11.32;3.80;;;18.20;99.90;;;;;;5056826;28;20041;-75
2023/07/12 06:02:25;;;;;;;10.63;3.90;;;18.20;99.90;;;;;;5058821;28;20047;-75
2023/07/12 06:04:51;;;;;;;12.48;5.07;;;18.20;99.90;;;;;;5064828;28;20553;-75
2023/07/12 06:07:16;;;;;;;13.77;4.70;;;18.30;99.90;;;;;;5054179;28;20447;-74
2023/07/12 06:09:42;;;;;;;14.45;4.80;;;18.30;99.90;;;;;;5067808;28;20037;-75
2023/07/12 06:12:08;;;;;;;13.85;5.28;;;18.30;99.90;;;;;;5040888;28;20059;-75
2023/07/12 06:14:34;;;;;;;17.88;5.75;;;18.40;99.90;;;;;;5044741;28;20040;-75
2023/07/12 06:16:59;;;;;;;12.90;4.90;;;18.50;99.90;;;;;;5069088;28;20467;-75
2023/07/12 06:19:25;;;;;;;11.85;4.70;;;18.40;99.90;;;;;;5048895;28;20469;-75
2023/07/12 06:21:52;;;;;;;11.48;4.95;;;18.30;99.90;;;;;;5061281;28;20095;-75
2023/07/12 06:24:18;;;;;;;14.20;5.18;;;18.20;99.90;;;;;;5068583;28;20150;-75
2023/07/12 06:26:44;;;;;;;11.82;5.28;;;18.20;99.90;;;;;;5053180;28;20473;-75
2023/07/12 06:29:10;;;;;;;13.55;4.45;;;18.10;99.90;;;;;;5072639;28;20048;-75
2023/07/12 06:31:35;;;;;;;13.25;5.53;;;18.10;99.90;;;;;;5071412;28;20056;-75
2023/07/12 06:34:05;;;;;;;10.48;5.30;;;18.20;99.90;;;;;;5040493;28;20041;-75
2023/07/12 06:36:32;;;;;;;14.00;5.43;;;18.20;99.90;;;;;;5070368;28;20032;-74
2023/07/12 06:38:58;;;;;;;12.05;4.90;;;18.20;99.90;;;;;;5050482;28;20553;-75
2023/07/12 06:41:23;;;;;;;13.65;5.15;;;18.30;99.90;;;;;;5054832;28;20037;-75
2023/07/12 06:43:49;;;;;;;12.05;4.63;;;18.40;99.90;;;;;;5047446;28;20040;-77
2023/07/12 06:46:15;;;;;;;15.65;5.55;;;18.30;99.90;;;;;;5048811;28;20033;-77
2023/07/12 06:48:41;;;;;;;14.57;5.38;;;18.30;99.90;;;;;;5065158;28;20408;-80
2023/07/12 06:51:06;;;;;;;11.80;5.00;;;18.40;99.90;;;;;;5064861;28;20033;-76
2023/07/12 06:53:32;;;;;;;11.35;4.57;;;18.50;99.90;;;;;;5053963;28;20040;-77
2023/07/12 06:55:58;;;;;;;18.45;5.40;;;18.60;99.90;;;;;;5036923;28;20051;-79
2023/07/12 06:58:23;;;;;;;12.38;5.80;;;18.80;99.90;;;;;;5036254;28;20047;-77
2023/07/12 07:00:49;;;;;;;11.35;5.15;;;18.80;99.90;;;;;;5053030;28;20404;-76
2023/07/12 07:03:16;;;;;;;12.52;5.03;;;18.90;99.90;;;;;;5052255;28;20503;-76
2023/07/12 07:05:44;;;;;;;15.00;5.57;;;18.90;99.90;;;;;;5053536;28;20043;-78
2023/07/12 07:08:16;;;;;;;13.20;5.10;;;19.10;99.90;;;;;;5059506;28;20036;-78
2023/07/12 07:10:43;;;;;;;13.75;5.18;;;19.20;99.90;;;;;;5051499;28;20481;-83
2023/07/12 07:13:10;;;;;;;14.75;5.32;;;19.10;99.90;;;;;;5063147;28;20051;-78
2023/07/12 07:15:36;;;;;;;14.20;5.18;;;19.10;99.90;;;;;;5056813;28;20041;-81
2023/07/12 07:18:02;;;;;;;14.15;5.40;;;19.20;99.90;;;;;;5042656;28;20039;-77
2023/07/12 07:20:28;;;;;;;14.95;5.65;;;19.10;99.90;;;;;;5050742;28;20037;-77
2023/07/12 07:22:54;;;;;;;14.95;4.47;;;19.20;99.90;;;;;;5065453;28;20060;-77
2023/07/12 07:25:19;;;;;;;10.88;4.20;;;19.10;99.90;;;;;;5049709;28;20037;-77
2023/07/12 07:27:46;;;;;;;9.98;4.25;;;19.00;99.90;;;;;;5039353;28;20052;-77
2023/07/12 07:30:13;;;;;;;12.82;4.45;;;19.00;99.90;;;;;;5045239;28;20037;-77
2023/07/12 07:32:38;;;;;;;11.85;4.20;;;19.10;99.90;;;;;;5042987;28;20044;-77
2023/07/12 07:35:05;;;;;;;15.23;4.45;;;19.20;99.90;;;;;;5070653;28;20105;-76
2023/07/12 07:37:30;;;;;;;13.68;4.85;;;19.40;99.90;;;;;;5070572;28;20123;-77
2023/07/12 07:39:56;;;;;;;14.27;4.00;;;19.40;99.90;;;;;;5052473;28;20457;-77
2023/07/12 07:42:21;;;;;;;11.27;3.92;;;19.50;99.90;;;;;;5052932;28;20177;-77
2023/07/12 07:44:47;;;;;;;10.07;3.95;;;19.40;99.90;;;;;;5058739;28;20033;-77
2023/07/12 07:47:13;;;;;;;13.45;4.70;;;19.40;99.90;;;;;;5037104;28;20124;-81
2023/07/12 07:49:38;;;;;;;11.05;3.72;;;19.50;99.90;;;;;;5054515;28;20044;-82
2023/07/12 07:52:04;;;;;;;13.43;4.00;;;19.50;99.90;;;;;;5051240;28;20379;-82
2023/07/12 07:54:30;;;;;;;12.32;4.25;;;19.50;99.90;;;;;;5052618;28;20036;-81
2023/07/12 07:56:56;;;;;;;11.68;4.07;;;19.50;99.90;;;;;;5052188;28;20043;-76
2023/07/12 07:59:22;;;;;;;11.75;3.80;;;19.40;99.90;;;;;;5042178;28;20516;-76
2023/07/12 08:01:47;;;;;;;10.52;3.60;;;19.50;99.90;;;;;;5046496;28;20503;-76
2023/07/12 08:04:13;;;;;;;10.55;4.05;;;19.40;99.90;;;;;;5047761;28;20541;-76
2023/07/12 08:06:39;;;;;;;12.38;3.88;;;19.50;99.90;;;;;;5068047;28;20123;-76
2023/07/12 08:09:07;;;;;;;12.35;4.55;;;19.50;99.90;;;;;;5068745;28;20051;-76
2023/07/12 08:11:33;;;;;;;11.70;3.60;;;19.60;99.90;;;;;;5053809;28;20439;-75
2023/07/12 08:13:59;;;;;;;11.60;3.95;;;19.60;99.90;;;;;;5053588;28;20048;-75
2023/07/12 08:16:27;;;;;;;13.15;3.88;;;19.60;99.90;;;;;;5069919;28;20075;-76
2023/07/12 08:18:53;;;;;;;14.25;3.70;;;19.50;99.90;;;;;;5040254;28;20550;-76
2023/07/12 08:21:19;;;;;;;10.85;3.60;;;19.40;99.90;;;;;;5054309;28;20055;-76
2023/07/12 08:23:44;;;;;;;12.35;3.90;;;19.30;99.90;;;;;;5050782;28;20033;-76
2023/07/12 08:26:10;;;;;;;9.85;4.30;;;19.30;99.90;;;;;;5078312;28;20041;-76
2023/07/12 08:28:36;;;;;;;15.20;4.72;;;19.30;99.90;;;;;;5045594;28;20064;-76
2023/07/12 08:31:01;;;;;;;12.65;3.95;;;19.50;99.90;;;;;;5060135;28;20032;-76
2023/07/12 08:33:27;;;;;;;9.73;3.72;;;19.70;99.90;;;;;;5064177;28;20045;-76
2023/07/12 08:35:53;;;;;;;11.50;4.10;;;19.90;99.90;;;;;;5042278;28;20513;-76
2023/07/12 08:38:18;;;;;;;15.10;4.22;;;19.90;99.90;;;;;;5049017;28;20064;-76
2023/07/12 08:40:47;;;;;;;11.23;4.07;;;20.10;99.90;;;;;;5034764;28;20033;-76
2023/07/12 08:43:17;;;;;;;11.38;3.88;;;20.10;99.90;;;;;;5039393;28;20032;-76
2023/07/12 08:45:45;;;;;;;12.27;4.38;;;20.20;99.90;;;;;;5072139;28;20097;-76
2023/07/12 08:48:20;;;;;;;11.90;4.05;;;20.10;99.90;;;;;;5077591;28;20085;-76
2023/07/12 08:50:47;;;;;;;10.50;4.38;;;20.10;99.90;;;;;;5056332;28;20048;-76
2023/07/12 08:53:17;;;;;;;12.00;3.90;;;20.00;99.90;;;;;;5037251;28;20086;-76
2023/07/12 08:55:43;;;;;;;13.07;4.30;;;20.00;99.90;;;;;;5050105;28;20493;-76
2023/07/12 08:58:29;;;;;;;9.95;4.20;;;19.80;99.90;;;;;;5054657;28;20037;-76
2023/07/12 09:01:07;;;;;;;12.23;4.00;;;19.80;99.90;;;;;;5043830;28;20107;-76
2023/07/12 09:03:34;;;;;;;13.50;4.20;;;19.70;99.90;;;;;;5074402;28;20097;-76
2023/07/12 09:06:00;;;;;;;16.73;5.65;;;19.60;99.90;;;;;;5043111;28;20040;-76
2023/07/12 09:08:36;;;;;;;19.05;5.18;;;19.60;99.90;;;;;;5043226;28;20127;-76
2023/07/12 09:11:01;;;;;;;10.57;3.90;;;19.50;99.90;;;;;;5065167;28;20037;-76
2023/07/12 09:13:35;;;;;;;13.68;4.15;;;19.40;99.90;;;;;;5072919;28;20039;-76
2023/07/12 09:16:02;;;;;;;12.88;3.50;;;19.20;99.90;;;;;;5074328;28;20039;-76
2023/07/12 09:18:28;;;;;;;15.20;4.07;;;19.30;99.90;;;;;;5073917;28;20515;-77
2023/07/12 09:20:55;;;;;;;13.38;3.72;;;19.40;99.90;;;;;;5057736;28;20043;-77
2023/07/12 09:23:21;;;;;;;11.13;3.25;;;19.20;99.90;;;;;;5070257;28;20037;-78
2023/07/12 09:25:53;;;;;;;8.27;3.22;;;19.10;99.90;;;;;;5037280;28;20461;-78
2023/07/12 09:28:19;;;;;;;10.48;3.33;;;19.00;99.90;;;;;;5053339;28;20053;-78
2023/07/12 09:30:45;;;;;;;8.02;3.33;;;18.90;99.90;;;;;;5056793;28;20040;-78
2023/07/12 09:33:21;;;;;;;9.85;2.55;;;18.80;99.90;;;;;;5055649;28;20021;-78
2023/07/12 09:35:47;;;;;;;8.18;3.08;;;18.90;99.90;;;;;;5036561;28;20080;-78
2023/07/12 09:38:15;;;;;;;6.60;2.72;;;18.80;99.90;;;;;;5053748;28;20552;-78
2023/07/12 09:40:44;;;;;;;10.13;3.53;;;18.70;99.90;;;;;;5058943;28;20041;-78
2023/07/12 09:43:16;;;;;;;12.15;4.25;;;18.70;99.90;;;;;;5045100;28;20122;-77
2023/07/12 09:46:04;;;;;;;11.43;4.82;;;18.90;99.90;;;;;;5064397;28;20040;-77
2023/07/12 09:48:41;;;;;;;10.98;4.60;;;19.00;99.90;;;;;;5070010;28;20045;-78
2023/07/12 09:51:25;;;;;;;13.27;5.18;;;19.20;99.90;;;;;;5065694;28;20029;-77
2023/07/12 09:54:17;;;;;;;11.55;5.05;;;19.30;99.90;;;;;;5070123;28;20556;-78
2023/07/12 09:57:04;;;;;;;12.88;5.28;;;19.60;99.90;;;;;;5070289;28;20040;-78
2023/07/12 09:59:57;;;;;;;12.20;5.03;;;19.80;99.90;;;;;;5043023;28;20102;-78
2023/07/12 10:02:45;;;;;;;9.75;4.68;;;19.70;99.90;;;;;;5050343;28;20159;-78
2023/07/12 10:05:19;;;;;;;13.70;4.80;;;19.80;99.90;;;;;;5058482;28;20032;-78
2023/07/12 10:07:55;;;;;;;10.45;4.03;;;19.90;99.90;;;;;;5072145;28;20037;-78
2023/07/12 10:10:38;;;;;;;12.77;4.55;;;19.90;99.90;;;;;;5057656;28;20056;-78
2023/07/12 10:13:14;;;;;;;11.45;4.00;;;19.80;99.90;;;;;;5055626;28;20044;-78
2023/07/12 10:15:40;;;;;;;13.48;4.80;;;19.90;99.90;;;;;;5066941;28;20041;-77
2023/07/12 10:18:14;;;;;;;11.00;4.20;;;20.00;99.90;;;;;;5057648;28;20107;-77
2023/07/12 10:20:40;;;;;;;9.45;4.25;;;20.30;99.90;;;;;;5055346;28;20120;-77
2023/07/12 10:23:08;;;;;;;9.13;3.63;;;20.30;99.90;;;;;;5053600;28;20564;-77
2023/07/12 10:25:36;;;;;;;9.10;4.10;;;20.40;99.90;;;;;;5055076;28;20127;-77
2023/07/12 10:28:32;;;;;;;12.63;4.25;;;20.40;99.90;;;;;;5056586;28;20493;-77
2023/07/12 10:31:02;;;;;;;10.93;3.70;;;20.40;99.90;;;;;;5057165;28;20132;-77
2023/07/12 10:33:37;;;;;;;9.93;3.30;;;20.30;99.90;;;;;;5035167;28;20557;-77
2023/07/12 10:36:09;;;;;;;8.52;2.45;;;20.30;99.90;;;;;;5071771;28;20036;-78
2023/07/12 10:38:34;;;;;;;6.35;1.90;;;20.00;99.90;;;;;;5064468;28;20040;-77
2023/07/12 10:41:28;;;;;;;6.90;2.33;;;19.80;99.90;;;;;;5064737;28;20111;-78
2023/07/12 10:44:04;;;;;;;7.47;2.50;;;19.90;99.90;;;;;;5055960;28;20071;-78
2023/07/12 10:46:37;;;;;;;6.03;2.20;;;20.10;99.90;;;;;;5047336;28;20477;-78
2023/07/12 10:49:11;;;;;;;6.95;2.40;;;20.30;99.90;;;;;;5035763;28;20696;-77
2023/07/12 10:51:40;;;;;;;6.10;2.60;;;20.40;99.90;;;;;;5035276;28;20504;-78
2023/07/12 10:54:28;;;;;;;8.15;2.55;;;20.60;99.90;;;;;;5068268;28;20048;-78
2023/07/12 10:56:55;;;;;;;6.30;2.50;;;20.70;99.90;;;;;;5053743;28;20040;-78
2023/07/12 10:59:32;;;;;;;8.05;2.55;;;20.80;99.90;;;;;;5068246;28;20170;-77
2023/07/12 11:02:04;;;;;;;7.43;2.58;;;20.80;99.90;;;;;;5063004;28;20478;-77
2023/07/12 11:04:29;;;;;;;8.30;2.55;;;20.70;99.90;;;;;;5051813;28;20032;-78
2023/07/12 11:07:21;;;;;;;6.70;2.42;;;20.70;99.90;;;;;;5037610;28;20573;-77
2023/07/12 11:09:49;;;;;;;9.63;2.63;;;20.40;99.90;;;;;;5050343;28;20044;-77
2023/07/12 11:12:26;;;;;;;8.77;2.65;;;20.50;99.90;;;;;;5053089;28;20048;-77
2023/07/12 11:15:05;;;;;;;9.40;2.53;;;20.60;99.90;;;;;;5055510;28;20076;-78
2023/07/12 11:18:00;;;;;;;6.45;2.53;;;20.50;99.90;;;;;;5054633;28;20120;-79
2023/07/12 11:20:53;;;;;;;6.95;2.15;;;20.40;99.90;;;;;;5069813;28;20047;-78
2023/07/12 11:23:30;;;;;;;9.02;2.80;;;20.30;99.90;;;;;;5063760;28;20119;-77
2023/07/12 11:26:02;;;;;;;7.47;2.58;;;20.40;99.90;;;;;;5052251;28;20044;-77
2023/07/12 11:28:43;;;;;;;8.57;2.60;;;20.60;99.90;;;;;;5044725;28;20049;-78
2023/07/12 11:31:26;;;;;;;7.78;2.40;;;20.70;99.90;;;;;;5053538;28;20366;-78
2023/07/12 11:34:15;;;;;;;7.50;2.50;;;20.80;99.90;;;;;;5059545;28;20045;-78
2023/07/12 11:36:43;;;;;;;9.63;2.60;;;21.00;99.90;;;;;;5043434;28;20044;-78
2023/07/12 11:39:20;;;;;;;6.80;2.22;;;21.10;99.90;;;;;;5048472;28;20069;-78
2023/07/12 11:41:57;;;;;;;9.23;2.88;;;21.10;99.90;;;;;;5058094;28;20119;-78
2023/07/12 11:44:25;;;;;;;8.23;2.35;;;21.10;99.90;;;;;;5070260;28;20046;-78
2023/07/12 11:46:51;;;;;;;6.72;2.28;;;21.20;99.90;;;;;;5069820;28;20115;-80
2023/07/12 11:49:19;;;;;;;12.82;2.90;;;21.30;99.90;;;;;;5064876;28;20047;-79
2023/07/12 11:51:53;;;;;;;6.68;2.28;;;21.20;99.90;;;;;;5053540;28;20458;-78
2023/07/12 11:54:20;;;;;;;9.05;2.53;;;21.20;99.90;;;;;;5068611;28;20032;-75
2023/07/12 11:56:48;;;;;;;6.90;2.20;;;21.30;99.90;;;;;;5061929;28;20116;-76
2023/07/12 11:59:16;;;;;;;6.38;1.83;;;21.40;99.90;;;;;;5058093;28;20119;-77
2023/07/12 12:01:43;;;;;;;5.47;1.70;;;21.20;99.90;;;;;;5070934;28;20505;-76
2023/07/12 12:04:21;;;;;;;6.63;2.03;;;20.90;99.90;;;;;;5063433;28;20116;-76
2023/07/12 12:06:52;;;;;;;4.97;2.00;;;21.00;99.90;;;;;;5040497;28;20109;-77
2023/07/12 12:09:22;;;;;;;5.57;2.00;;;21.00;99.90;;;;;;5069443;28;20041;-76
2023/07/12 12:11:48;;;;;;;5.47;1.73;;;21.20;99.90;;;;;;5069400;28;20044;-76
2023/07/12 12:14:21;;;;;;;5.47;1.60;;;21.40;99.90;;;;;;5046044;28;20059;-77
2023/07/12 12:16:54;;;;;;;6.95;1.52;;;21.50;99.90;;;;;;5066722;28;20119;-76
2023/07/12 12:19:22;;;;;;;5.05;1.30;;;21.50;99.90;;;;;;5053059;28;20037;-77
2023/07/12 12:22:00;;;;;;;4.55;1.63;;;21.40;99.90;;;;;;5075523;28;20052;-77
2023/07/12 12:24:26;;;;;;;5.70;1.52;;;21.20;99.90;;;;;;5055169;28;20497;-77
2023/07/12 12:26:52;;;;;;;4.63;1.50;;;21.30;99.90;;;;;;5073600;28;20083;-76
2023/07/12 12:29:22;;;;;;;7.35;1.75;;;21.40;99.90;;;;;;5059219;28;20513;-76
2023/07/12 12:31:54;;;;;;;4.55;1.40;;;21.50;99.90;;;;;;5057394;28;20086;-76
2023/07/12 12:34:21;;;;;;;4.22;1.40;;;21.40;99.90;;;;;;5066358;28;20033;-76
2023/07/12 12:37:05;;;;;;;3.80;1.40;;;21.40;99.90;;;;;;5060573;28;20040;-76
2023/07/12 12:39:31;;;;;;;4.68;1.70;;;21.40;99.90;;;;;;5059739;28;20056;-76
2023/07/12 12:41:59;;;;;;;6.13;1.70;;;21.20;99.90;;;;;;5050244;28;20431;-76
2023/07/12 12:44:35;;;;;;;5.93;1.50;;;21.30;99.90;;;;;;5037523;28;20033;-77
2023/07/12 12:47:13;;;;;;;4.88;1.58;;;21.30;99.90;;;;;;5045662;28;20501;-77
2023/07/12 12:49:38;;;;;;;4.70;1.42;;;21.10;99.90;;;;;;5054190;28;20048;-77
2023/07/12 12:52:26;;;;;;;6.85;1.85;;;21.00;99.90;;;;;;5065283;28;20124;-76